createdAt,value
2018-04-16T00:00:39.490Z,1007.82
2018-04-16T00:01:38.481Z,1007.82
2018-04-16T00:02:38.985Z,1007.80
2018-04-16T00:03:38.425Z,1007.79
2018-04-16T00:04:38.435Z,1007.80
2018-04-16T00:05:38.371Z,1007.80
2018-04-16T00:06:38.537Z,1007.77
2018-04-16T00:07:38.320Z,1007.73
2018-04-16T00:08:38.986Z,1007.78
2018-04-16T00:09:38.277Z,1007.81
2018-04-16T00:10:38.990Z,1007.80
2018-04-16T00:11:38.248Z,1007.84
2018-04-16T00:12:38.986Z,1007.82
2018-04-16T00:13:38.154Z,1007.78
2018-04-16T00:14:38.125Z,1007.73
2018-04-16T00:15:38.113Z,1007.76
2018-04-16T00:16:38.549Z,1007.77
2018-04-16T00:17:38.049Z,1007.72
2018-04-16T00:18:38.988Z,1007.72
2018-04-16T00:19:37.993Z,1007.71
2018-04-16T00:20:37.966Z,1007.66
2018-04-16T00:21:38.042Z,1007.66
2018-04-16T00:22:37.913Z,1007.72
2018-04-16T00:23:37.885Z,1007.74
2018-04-16T00:24:38.041Z,1007.76
2018-04-16T00:25:37.836Z,1007.74
2018-04-16T00:26:37.806Z,1007.70
2018-04-16T00:27:38.486Z,1007.69
2018-04-16T00:28:37.751Z,1007.64
2018-04-16T00:29:38.035Z,1007.71
2018-04-16T00:30:37.706Z,1007.68
2018-04-16T00:31:37.716Z,1007.62
2018-04-16T00:32:38.492Z,1007.61
2018-04-16T00:33:37.621Z,1007.59
2018-04-16T00:34:38.490Z,1007.56
2018-04-16T00:35:37.602Z,1007.58
2018-04-16T00:36:37.588Z,1007.52
2018-04-16T00:37:38.490Z,1007.53
2018-04-16T00:38:37.481Z,1007.52
2018-04-16T00:39:37.992Z,1007.43
2018-04-16T00:40:37.472Z,1007.41
2018-04-16T00:41:37.534Z,1007.42
2018-04-16T00:42:37.376Z,1007.45
2018-04-16T00:43:37.987Z,1007.43
2018-04-16T00:44:37.351Z,1007.49
2018-04-16T00:45:40.000Z,1007.47
2018-04-16T00:46:37.319Z,1007.49
2018-04-16T00:47:37.549Z,1007.46
2018-04-16T00:48:37.274Z,1007.47
2018-04-16T00:49:37.188Z,1007.54
2018-04-16T00:50:37.987Z,1007.51
2018-04-16T00:51:37.174Z,1007.51
2018-04-16T00:52:37.996Z,1007.44
2018-04-16T00:53:37.086Z,1007.44
2018-04-16T00:54:37.054Z,1007.39
2018-04-16T00:55:37.991Z,1007.42
2018-04-16T00:56:37.047Z,1007.47
2018-04-16T00:57:36.969Z,1007.45
2018-04-16T00:58:37.487Z,1007.51
2018-04-16T00:59:36.920Z,1007.52
2018-04-16T01:00:36.893Z,1007.50
2018-04-16T01:01:37.053Z,1007.50
2018-04-16T01:02:36.840Z,1007.55
2018-04-16T01:03:37.490Z,1007.55
2018-04-16T01:04:36.805Z,1007.55
2018-04-16T01:05:36.764Z,1007.56
2018-04-16T01:06:36.773Z,1007.59
2018-04-16T01:07:36.703Z,1007.55
2018-04-16T01:08:37.492Z,1007.52
2018-04-16T01:09:36.650Z,1007.57
2018-04-16T01:10:37.038Z,1007.59
2018-04-16T01:11:36.597Z,1007.61
2018-04-16T01:12:37.037Z,1007.58
2018-04-16T01:13:36.567Z,1007.56
2018-04-16T01:14:37.495Z,1007.56
2018-04-16T01:15:36.488Z,1007.53
2018-04-16T01:16:36.464Z,1007.49
2018-04-16T01:17:36.538Z,1007.49
2018-04-16T01:18:36.454Z,1007.47
2018-04-16T01:19:37.004Z,1007.50
2018-04-16T01:20:36.351Z,1007.51
2018-04-16T01:21:36.991Z,1007.53
2018-04-16T01:22:36.307Z,1007.52
2018-04-16T01:23:36.320Z,1007.58
2018-04-16T01:24:36.995Z,1007.52
2018-04-16T01:25:36.253Z,1007.52
2018-04-16T01:26:36.189Z,1007.51
2018-04-16T01:27:36.166Z,1007.51
2018-04-16T01:28:36.989Z,1007.53
2018-04-16T01:29:36.159Z,1007.46
2018-04-16T01:30:36.995Z,1007.50
2018-04-16T01:31:36.064Z,1007.49
2018-04-16T01:32:36.994Z,1007.45
2018-04-16T01:33:36.048Z,1007.47
2018-04-16T01:34:36.051Z,1007.40
2018-04-16T01:35:35.954Z,1007.32
2018-04-16T01:36:36.497Z,1007.27
2018-04-16T01:37:35.898Z,1007.19
2018-04-16T01:38:36.509Z,1007.17
2018-04-16T01:39:35.918Z,1007.12
2018-04-16T01:40:36.516Z,1007.11
2018-04-16T01:41:35.795Z,1007.14
2018-04-16T01:42:36.508Z,1007.18
2018-04-16T01:43:35.737Z,1007.14
2018-04-16T01:44:35.741Z,1007.16
2018-04-16T01:45:36.058Z,1007.19
2018-04-16T01:46:35.663Z,1007.20
2018-04-16T01:47:36.507Z,1007.18
2018-04-16T01:48:35.605Z,1007.22
2018-04-16T01:49:36.499Z,1007.22
2018-04-16T01:50:35.587Z,1007.24
2018-04-16T01:51:36.059Z,1007.27
2018-04-16T01:52:35.492Z,1007.26
2018-04-16T01:53:35.475Z,1007.32
2018-04-16T01:54:35.996Z,1007.33
2018-04-16T01:55:35.410Z,1007.31
2018-04-16T01:56:35.543Z,1007.30
2018-04-16T01:57:35.406Z,1007.36
2018-04-16T01:58:35.328Z,1007.35
2018-04-16T01:59:35.308Z,1007.35
2018-04-16T02:00:35.321Z,1007.32
2018-04-16T02:01:36.001Z,1007.24
2018-04-16T02:02:35.234Z,1007.26
2018-04-16T02:03:35.194Z,1007.24
2018-04-16T02:04:36.003Z,1007.24
2018-04-16T02:05:35.180Z,1007.24
2018-04-16T02:06:36.010Z,1007.23
2018-04-16T02:07:35.094Z,1007.19
2018-04-16T02:08:36.914Z,1007.20
2018-04-16T02:09:35.042Z,1007.17
2018-04-16T02:10:35.065Z,1007.13
2018-04-16T02:11:34.983Z,1007.11
2018-04-16T02:12:34.972Z,1007.07
2018-04-16T02:13:35.504Z,1007.07
2018-04-16T02:14:34.908Z,1007.03
2018-04-16T02:15:34.925Z,1007.07
2018-04-16T02:16:35.511Z,1007.02
2018-04-16T02:17:34.822Z,1007.04
2018-04-16T02:18:35.550Z,1006.99
2018-04-16T02:19:34.767Z,1006.99
2018-04-16T02:20:35.507Z,1006.92
2018-04-16T02:21:34.759Z,1007.01
2018-04-16T02:22:35.501Z,1006.96
2018-04-16T02:23:34.693Z,1006.98
2018-04-16T02:24:34.632Z,1006.95
2018-04-16T02:25:35.506Z,1006.98
2018-04-16T02:26:34.585Z,1007.04
2018-04-16T02:27:35.055Z,1007.09
2018-04-16T02:28:34.532Z,1007.11
2018-04-16T02:29:35.007Z,1007.15
2018-04-16T02:30:34.504Z,1007.15
2018-04-16T02:31:34.447Z,1007.11
2018-04-16T02:32:35.004Z,1007.12
2018-04-16T02:33:34.393Z,1007.11
2018-04-16T02:34:35.003Z,1007.15
2018-04-16T02:35:34.381Z,1007.12
2018-04-16T02:36:35.009Z,1007.17
2018-04-16T02:37:34.285Z,1007.21
2018-04-16T02:38:34.559Z,1007.21
2018-04-16T02:39:34.231Z,1007.23
2018-04-16T02:40:34.562Z,1007.22
2018-04-16T02:41:34.175Z,1007.17
2018-04-16T02:42:35.004Z,1007.21
2018-04-16T02:43:34.127Z,1007.20
2018-04-16T02:44:35.014Z,1007.23
2018-04-16T02:45:34.108Z,1007.25
2018-04-16T02:46:34.088Z,1007.26
2018-04-16T02:47:35.006Z,1007.32
2018-04-16T02:48:34.025Z,1007.30
2018-04-16T02:49:33.966Z,1007.31
2018-04-16T02:50:34.066Z,1007.33
2018-04-16T02:51:33.915Z,1007.33
2018-04-16T02:52:34.509Z,1007.33
2018-04-16T02:53:33.857Z,1007.30
2018-04-16T02:54:33.831Z,1007.33
2018-04-16T02:55:34.056Z,1007.36
2018-04-16T02:56:33.776Z,1007.37
2018-04-16T02:57:34.507Z,1007.38
2018-04-16T02:58:33.760Z,1007.38
2018-04-16T02:59:34.512Z,1007.39
2018-04-16T03:00:33.668Z,1007.37
2018-04-16T03:01:33.642Z,1007.39
2018-04-16T03:02:34.506Z,1007.38
2018-04-16T03:03:33.631Z,1007.38
2018-04-16T03:04:34.054Z,1007.40
2018-04-16T03:05:33.535Z,1007.39
2018-04-16T03:06:33.506Z,1007.38
2018-04-16T03:07:33.482Z,1007.41
2018-04-16T03:08:34.010Z,1007.39
2018-04-16T03:09:33.461Z,1007.37
2018-04-16T03:10:34.028Z,1007.35
2018-04-16T03:11:33.400Z,1007.36
2018-04-16T03:12:34.009Z,1007.35
2018-04-16T03:13:33.319Z,1007.35
2018-04-16T03:14:33.562Z,1007.37
2018-04-16T03:15:33.266Z,1007.31
2018-04-16T03:16:33.237Z,1007.34
2018-04-16T03:17:33.251Z,1007.35
2018-04-16T03:18:33.189Z,1007.32
2018-04-16T03:19:33.163Z,1007.34
2018-04-16T03:20:33.136Z,1007.31
2018-04-16T03:21:33.106Z,1007.32
2018-04-16T03:22:33.118Z,1007.35
2018-04-16T03:23:33.054Z,1007.38
2018-04-16T03:24:33.032Z,1007.40
2018-04-16T03:25:32.995Z,1007.39
2018-04-16T03:26:32.967Z,1007.40
2018-04-16T03:27:32.972Z,1007.39
2018-04-16T03:28:32.916Z,1007.41
2018-04-16T03:29:32.892Z,1007.40
2018-04-16T03:30:32.881Z,1007.40
2018-04-16T03:31:32.844Z,1007.42
2018-04-16T03:32:32.849Z,1007.40
2018-04-16T03:33:32.783Z,1007.41
2018-04-16T03:34:32.761Z,1007.41
2018-04-16T03:35:32.732Z,1007.41
2018-04-16T03:36:32.702Z,1007.41
2018-04-16T03:37:32.719Z,1007.44
2018-04-16T03:38:32.645Z,1007.45
2018-04-16T03:39:32.620Z,1007.45
2018-04-16T03:40:32.595Z,1007.46
2018-04-16T03:41:32.565Z,1007.44
2018-04-16T03:42:32.587Z,1007.42
2018-04-16T03:43:32.509Z,1007.43
2018-04-16T03:44:32.491Z,1007.48
2018-04-16T03:45:32.461Z,1007.51
2018-04-16T03:46:32.430Z,1007.48
2018-04-16T03:47:32.437Z,1007.47
2018-04-16T03:48:32.378Z,1007.50
2018-04-16T03:49:32.348Z,1007.49
2018-04-16T03:50:32.319Z,1007.47
2018-04-16T03:51:32.301Z,1007.45
2018-04-16T03:52:32.317Z,1007.48
2018-04-16T03:53:32.243Z,1007.44
2018-04-16T03:54:32.224Z,1007.44
2018-04-16T03:55:32.188Z,1007.46
2018-04-16T03:56:32.196Z,1007.46
2018-04-16T03:57:32.137Z,1007.50
2018-04-16T03:58:32.114Z,1007.52
2018-04-16T03:59:32.171Z,1007.51
2018-04-16T04:00:32.056Z,1007.53
2018-04-16T04:01:32.026Z,1007.57
2018-04-16T04:02:32.003Z,1007.60
2018-04-16T04:03:31.977Z,1007.62
2018-04-16T04:04:31.982Z,1007.68
2018-04-16T04:05:31.921Z,1007.68
2018-04-16T04:06:31.894Z,1007.71
2018-04-16T04:07:31.873Z,1007.74
2018-04-16T04:08:31.875Z,1007.74
2018-04-16T04:09:31.816Z,1007.77
2018-04-16T04:10:31.784Z,1007.74
2018-04-16T04:11:31.756Z,1007.76
2018-04-16T04:12:31.734Z,1007.79
2018-04-16T04:13:31.747Z,1007.81
2018-04-16T04:14:31.677Z,1007.83
2018-04-16T04:15:31.659Z,1007.88
2018-04-16T04:16:31.630Z,1007.84
2018-04-16T04:17:31.599Z,1007.89
2018-04-16T04:18:31.610Z,1007.88
2018-04-16T04:19:31.592Z,1007.93
2018-04-16T04:20:31.561Z,1007.90
2018-04-16T04:21:31.498Z,1007.87
2018-04-16T04:22:31.481Z,1007.87
2018-04-16T04:23:31.436Z,1007.93
2018-04-16T04:24:31.447Z,1007.92
2018-04-16T04:25:31.379Z,1007.89
2018-04-16T04:26:31.353Z,1007.93
2018-04-16T04:27:31.364Z,1007.93
2018-04-16T04:28:31.299Z,1007.92
2018-04-16T04:29:31.281Z,1007.94
2018-04-16T04:30:31.248Z,1007.92
2018-04-16T04:31:31.270Z,1007.91
2018-04-16T04:32:31.196Z,1007.91
2018-04-16T04:33:31.171Z,1007.90
2018-04-16T04:34:31.141Z,1007.90
2018-04-16T04:35:31.150Z,1007.92
2018-04-16T04:36:31.146Z,1007.96
2018-04-16T04:37:31.099Z,1007.97
2018-04-16T04:38:31.037Z,1007.93
2018-04-16T04:39:31.006Z,1007.96
2018-04-16T04:40:30.980Z,1007.98
2018-04-16T04:41:31.004Z,1008.01
2018-04-16T04:42:30.926Z,1008.03
2018-04-16T04:43:30.900Z,1008.02
2018-04-16T04:44:30.876Z,1008.05
2018-04-16T04:45:30.850Z,1008.05
2018-04-16T04:46:30.858Z,1008.10
2018-04-16T04:47:30.802Z,1008.08
2018-04-16T04:48:30.765Z,1008.07
2018-04-16T04:49:30.740Z,1008.12
2018-04-16T04:50:30.765Z,1008.12
2018-04-16T04:51:30.687Z,1008.12
2018-04-16T04:52:30.664Z,1008.13
2018-04-16T04:53:30.637Z,1008.16
2018-04-16T04:54:30.615Z,1008.13
2018-04-16T04:55:30.618Z,1008.18
2018-04-16T04:56:30.595Z,1008.19
2018-04-16T04:57:30.528Z,1008.18
2018-04-16T04:58:30.550Z,1008.23
2018-04-16T04:59:30.518Z,1008.23
2018-04-16T05:00:30.445Z,1008.20
2018-04-16T05:01:30.545Z,1008.22
2018-04-16T05:02:30.396Z,1008.21
2018-04-16T05:03:30.364Z,1008.25
2018-04-16T05:04:30.338Z,1008.27
2018-04-16T05:05:30.353Z,1008.30
2018-04-16T05:06:30.335Z,1008.27
2018-04-16T05:07:30.280Z,1008.25
2018-04-16T05:08:30.228Z,1008.26
2018-04-16T05:09:30.206Z,1008.24
2018-04-16T05:10:30.187Z,1008.26
2018-04-16T05:11:30.196Z,1008.24
2018-04-16T05:12:30.131Z,1008.19
2018-04-16T05:13:30.104Z,1008.24
2018-04-16T05:14:30.066Z,1008.25
2018-04-16T05:15:30.042Z,1008.29
2018-04-16T05:16:30.056Z,1008.28
2018-04-16T05:17:29.996Z,1008.33
2018-04-16T05:18:29.960Z,1008.32
2018-04-16T05:19:29.932Z,1008.35
2018-04-16T05:20:29.901Z,1008.41
2018-04-16T05:21:30.090Z,1008.40
2018-04-16T05:22:30.933Z,1008.41
2018-04-16T05:23:29.820Z,1008.44
2018-04-16T05:24:29.793Z,1008.49
2018-04-16T05:25:29.771Z,1008.50
2018-04-16T05:26:29.743Z,1008.49
2018-04-16T05:27:29.761Z,1008.49
2018-04-16T05:28:29.697Z,1008.51
2018-04-16T05:29:29.667Z,1008.50
2018-04-16T05:30:29.636Z,1008.55
2018-04-16T05:31:29.648Z,1008.53
2018-04-16T05:32:29.647Z,1008.52
2018-04-16T05:33:29.555Z,1008.57
2018-04-16T05:34:29.526Z,1008.56
2018-04-16T05:35:29.539Z,1008.63
2018-04-16T05:36:29.475Z,1008.60
2018-04-16T05:37:29.485Z,1008.60
2018-04-16T05:38:29.414Z,1008.59
2018-04-16T05:39:29.400Z,1008.61
2018-04-16T05:40:29.362Z,1008.61
2018-04-16T05:41:29.349Z,1008.63
2018-04-16T05:42:29.377Z,1008.64
2018-04-16T05:43:29.289Z,1008.69
2018-04-16T05:44:29.255Z,1008.72
2018-04-16T05:45:29.232Z,1008.70
2018-04-16T05:46:29.199Z,1008.72
2018-04-16T05:47:29.199Z,1008.74
2018-04-16T05:48:29.180Z,1008.73
2018-04-16T05:49:29.169Z,1008.71
2018-04-16T05:50:29.090Z,1008.70
2018-04-16T05:51:29.095Z,1008.72
2018-04-16T05:52:29.061Z,1008.75
2018-04-16T05:53:29.007Z,1008.74
2018-04-16T05:54:29.028Z,1008.76
2018-04-16T05:55:28.955Z,1008.79
2018-04-16T05:56:28.929Z,1008.80
2018-04-16T05:57:29.567Z,1008.79
2018-04-16T05:58:28.873Z,1008.79
2018-04-16T05:59:28.880Z,1008.79
2018-04-16T06:00:28.815Z,1008.83
2018-04-16T06:01:28.837Z,1008.85
2018-04-16T06:02:28.766Z,1008.86
2018-04-16T06:03:28.737Z,1008.86
2018-04-16T06:04:28.710Z,1008.83
2018-04-16T06:05:28.739Z,1008.84
2018-04-16T06:06:28.660Z,1008.85
2018-04-16T06:07:28.653Z,1008.87
2018-04-16T06:08:28.611Z,1008.90
2018-04-16T06:09:28.581Z,1008.93
2018-04-16T06:10:28.592Z,1008.92
2018-04-16T06:11:28.522Z,1008.95
2018-04-16T06:12:28.500Z,1008.97
2018-04-16T06:13:28.483Z,1008.97
2018-04-16T06:14:28.440Z,1009.01
2018-04-16T06:15:28.465Z,1008.95
2018-04-16T06:16:28.388Z,1008.98
2018-04-16T06:17:28.371Z,1008.99
2018-04-16T06:18:28.334Z,1009.01
2018-04-16T06:19:28.311Z,1008.99
2018-04-16T06:20:28.329Z,1009.02
2018-04-16T06:21:28.261Z,1009.02
2018-04-16T06:22:28.229Z,1009.05
2018-04-16T06:23:28.260Z,1009.06
2018-04-16T06:24:28.182Z,1009.08
2018-04-16T06:25:28.151Z,1009.10
2018-04-16T06:26:28.126Z,1009.12
2018-04-16T06:27:28.163Z,1009.18
2018-04-16T06:28:28.104Z,1009.21
2018-04-16T06:29:28.045Z,1009.22
2018-04-16T06:30:28.028Z,1009.28
2018-04-16T06:31:27.991Z,1009.25
2018-04-16T06:32:28.004Z,1009.27
2018-04-16T06:33:27.941Z,1009.28
2018-04-16T06:34:27.913Z,1009.26
2018-04-16T06:35:27.888Z,1009.28
2018-04-16T06:36:27.861Z,1009.29
2018-04-16T06:37:27.880Z,1009.32
2018-04-16T06:38:27.808Z,1009.31
2018-04-16T06:39:27.784Z,1009.39
2018-04-16T06:40:27.766Z,1009.38
2018-04-16T06:41:27.743Z,1009.37
2018-04-16T06:42:27.763Z,1009.39
2018-04-16T06:43:27.691Z,1009.43
2018-04-16T06:44:27.659Z,1009.46
2018-04-16T06:45:27.669Z,1009.45
2018-04-16T06:46:27.601Z,1009.49
2018-04-16T06:47:27.587Z,1009.50
2018-04-16T06:48:27.548Z,1009.53
2018-04-16T06:49:27.551Z,1009.51
2018-04-16T06:50:27.495Z,1009.51
2018-04-16T06:51:27.474Z,1009.54
2018-04-16T06:52:27.448Z,1009.57
2018-04-16T06:53:27.425Z,1009.57
2018-04-16T06:54:27.432Z,1009.61
2018-04-16T06:55:27.407Z,1009.63
2018-04-16T06:56:27.339Z,1009.64
2018-04-16T06:57:27.319Z,1009.65
2018-04-16T06:58:27.342Z,1009.64
2018-04-16T06:59:27.264Z,1009.60
2018-04-16T07:00:27.286Z,1009.65
2018-04-16T07:01:27.219Z,1009.65
2018-04-16T07:02:27.191Z,1009.67
2018-04-16T07:03:27.196Z,1009.69
2018-04-16T07:04:27.191Z,1009.71
2018-04-16T07:05:27.112Z,1009.74
2018-04-16T07:06:27.090Z,1009.79
2018-04-16T07:07:27.056Z,1009.79
2018-04-16T07:08:27.065Z,1009.81
2018-04-16T07:09:27.049Z,1009.81
2018-04-16T07:10:26.985Z,1009.83
2018-04-16T07:11:26.991Z,1009.86
2018-04-16T07:12:26.927Z,1009.82
2018-04-16T07:13:26.897Z,1009.83
2018-04-16T07:14:26.914Z,1009.89
2018-04-16T07:15:26.852Z,1009.87
2018-04-16T07:16:26.861Z,1009.87
2018-04-16T07:17:26.791Z,1009.88
2018-04-16T07:18:26.783Z,1009.90
2018-04-16T07:19:26.783Z,1009.89
2018-04-16T07:20:26.717Z,1009.88
2018-04-16T07:21:26.705Z,1009.90
2018-04-16T07:22:26.666Z,1009.94
2018-04-16T07:23:26.678Z,1009.92
2018-04-16T07:24:26.607Z,1009.92
2018-04-16T07:25:27.087Z,1009.90
2018-04-16T07:26:26.568Z,1009.95
2018-04-16T07:27:26.565Z,1009.95
2018-04-16T07:28:26.557Z,1009.98
2018-04-16T07:29:26.480Z,1010.00
2018-04-16T07:30:26.453Z,1010.00
2018-04-16T07:31:26.427Z,1009.95
2018-04-16T07:32:26.405Z,1009.98
2018-04-16T07:33:26.411Z,1010.00
2018-04-16T07:34:26.344Z,1010.02
2018-04-16T07:35:26.328Z,1009.96
2018-04-16T07:36:26.367Z,1009.96
2018-04-16T07:37:26.262Z,1009.96
2018-04-16T07:38:26.237Z,1009.97
2018-04-16T07:39:26.210Z,1010.01
2018-04-16T07:40:26.189Z,1009.94
2018-04-16T07:41:26.196Z,1009.99
2018-04-16T07:42:26.174Z,1009.99
2018-04-16T07:43:26.109Z,1010.03
2018-04-16T07:44:26.133Z,1010.03
2018-04-16T07:45:26.050Z,1010.03
2018-04-16T07:46:26.035Z,1010.02
2018-04-16T07:47:26.003Z,1010.02
2018-04-16T07:48:25.975Z,1010.03
2018-04-16T07:49:25.989Z,1010.03
2018-04-16T07:50:25.952Z,1010.06
2018-04-16T07:51:25.897Z,1010.06
2018-04-16T07:52:25.870Z,1010.10
2018-04-16T07:53:25.845Z,1010.08
2018-04-16T07:54:25.817Z,1010.10
2018-04-16T07:55:25.831Z,1010.14
2018-04-16T07:56:25.758Z,1010.12
2018-04-16T07:57:25.743Z,1010.18
2018-04-16T07:58:25.711Z,1010.20
2018-04-16T07:59:25.686Z,1010.19
2018-04-16T08:00:25.698Z,1010.16
2018-04-16T08:01:25.652Z,1010.20
2018-04-16T08:02:25.600Z,1010.17
2018-04-16T08:03:25.582Z,1010.20
2018-04-16T08:04:25.590Z,1010.16
2018-04-16T08:05:25.524Z,1010.14
2018-04-16T08:06:25.498Z,1010.16
2018-04-16T08:07:25.510Z,1010.20
2018-04-16T08:08:25.441Z,1010.19
2018-04-16T08:09:25.417Z,1010.18
2018-04-16T08:10:25.392Z,1010.18
2018-04-16T08:11:25.363Z,1010.17
2018-04-16T08:12:25.392Z,1010.19
2018-04-16T08:13:25.313Z,1010.23
2018-04-16T08:14:25.281Z,1010.21
2018-04-16T08:15:25.257Z,1010.23
2018-04-16T08:16:25.227Z,1010.27
2018-04-16T08:17:25.240Z,1010.23
2018-04-16T08:18:25.177Z,1010.28
2018-04-16T08:19:25.155Z,1010.26
2018-04-16T08:20:25.165Z,1010.31
2018-04-16T08:21:25.097Z,1010.30
2018-04-16T08:22:25.074Z,1010.30
2018-04-16T08:23:25.082Z,1010.31
2018-04-16T08:24:25.023Z,1010.34
2018-04-16T08:25:25.037Z,1010.28
2018-04-16T08:26:24.967Z,1010.28
2018-04-16T08:27:24.941Z,1010.27
2018-04-16T08:28:24.913Z,1010.28
2018-04-16T08:29:24.901Z,1010.23
2018-04-16T08:30:24.931Z,1010.24
2018-04-16T08:31:24.836Z,1010.25
2018-04-16T08:32:24.808Z,1010.26
2018-04-16T08:33:24.784Z,1010.23
2018-04-16T08:34:24.754Z,1010.21
2018-04-16T08:35:24.779Z,1010.27
2018-04-16T08:36:24.706Z,1010.26
2018-04-16T08:37:24.680Z,1010.24
2018-04-16T08:38:24.650Z,1010.26
2018-04-16T08:39:24.629Z,1010.22
2018-04-16T08:40:24.646Z,1010.25
2018-04-16T08:41:24.570Z,1010.29
2018-04-16T08:42:24.548Z,1010.26
2018-04-16T08:43:24.537Z,1010.26
2018-04-16T08:44:24.506Z,1010.25
2018-04-16T08:45:24.511Z,1010.24
2018-04-16T08:46:24.450Z,1010.23
2018-04-16T08:47:24.463Z,1010.22
2018-04-16T08:48:24.393Z,1010.25
2018-04-16T08:49:24.599Z,1010.23
2018-04-16T08:50:24.337Z,1010.19
2018-04-16T08:51:24.311Z,1010.15
2018-04-16T08:52:24.333Z,1010.12
2018-04-16T08:53:24.266Z,1010.14
2018-04-16T08:54:24.273Z,1010.14
2018-04-16T08:55:24.207Z,1010.14
2018-04-16T08:56:24.231Z,1010.18
2018-04-16T08:57:24.161Z,1010.18
2018-04-16T08:58:24.132Z,1010.18
2018-04-16T08:59:24.155Z,1010.22
2018-04-16T09:00:24.077Z,1010.16
2018-04-16T09:01:24.145Z,1010.17
2018-04-16T09:02:24.025Z,1010.18
2018-04-16T09:03:24.005Z,1010.15
2018-04-16T09:04:24.009Z,1010.18
2018-04-16T09:05:23.959Z,1010.17
2018-04-16T09:06:23.928Z,1010.20
2018-04-16T09:07:23.909Z,1010.19
2018-04-16T09:08:23.918Z,1010.18
2018-04-16T09:09:23.891Z,1010.14
2018-04-16T09:10:23.827Z,1010.16
2018-04-16T09:11:24.110Z,1010.18
2018-04-16T09:12:23.772Z,1010.16
2018-04-16T09:13:23.753Z,1010.17
2018-04-16T09:14:23.719Z,1010.16
2018-04-16T09:15:23.703Z,1010.14
2018-04-16T09:16:23.727Z,1010.13
2018-04-16T09:17:23.657Z,1010.11
2018-04-16T09:18:23.616Z,1010.08
2018-04-16T09:19:23.594Z,1010.03
2018-04-16T09:20:23.571Z,1009.99
2018-04-16T09:21:23.585Z,1010.05
2018-04-16T09:22:23.528Z,1010.08
2018-04-16T09:23:23.496Z,1010.09
2018-04-16T09:24:23.517Z,1010.08
2018-04-16T09:25:23.446Z,1010.10
2018-04-16T09:26:23.422Z,1010.11
2018-04-16T09:27:23.405Z,1010.12
2018-04-16T09:28:23.379Z,1010.12
2018-04-16T09:29:23.393Z,1010.08
2018-04-16T09:30:23.392Z,1010.15
2018-04-16T09:31:23.300Z,1010.11
2018-04-16T09:32:23.283Z,1010.11
2018-04-16T09:33:23.270Z,1010.11
2018-04-16T09:34:23.230Z,1010.09
2018-04-16T09:35:23.242Z,1010.09
2018-04-16T09:36:23.226Z,1010.03
2018-04-16T09:37:23.167Z,1010.04
2018-04-16T09:38:23.168Z,1010.06
2018-04-16T09:39:23.110Z,1010.06
2018-04-16T09:40:23.123Z,1010.03
2018-04-16T09:41:23.105Z,1010.05
2018-04-16T09:42:23.043Z,1010.01
2018-04-16T09:43:23.015Z,1010.02
2018-04-16T09:44:22.996Z,1010.03
2018-04-16T09:45:22.967Z,1010.04
2018-04-16T09:46:22.987Z,1010.04
2018-04-16T09:47:22.920Z,1010.04
2018-04-16T09:48:22.901Z,1010.03
2018-04-16T09:49:22.870Z,1010.03
2018-04-16T09:50:22.873Z,1010.02
2018-04-16T09:51:22.876Z,1009.98
2018-04-16T09:52:22.801Z,1010.02
2018-04-16T09:53:22.776Z,1010.01
2018-04-16T09:54:22.753Z,1010.01
2018-04-16T09:55:22.730Z,1010.00
2018-04-16T09:56:22.736Z,1009.99
2018-04-16T09:57:22.684Z,1010.02
2018-04-16T09:58:22.662Z,1010.01
2018-04-16T09:59:22.644Z,1010.00
2018-04-16T10:00:22.645Z,1010.08
2018-04-16T10:01:22.638Z,1010.08
2018-04-16T10:02:22.568Z,1010.08
2018-04-16T10:03:22.545Z,1010.08
2018-04-16T10:04:22.525Z,1010.10
2018-04-16T10:05:22.508Z,1010.15
2018-04-16T10:06:22.529Z,1010.15
2018-04-16T10:07:22.476Z,1010.17
2018-04-16T10:08:22.435Z,1010.16
2018-04-16T10:09:22.409Z,1010.17
2018-04-16T10:10:22.396Z,1010.13
2018-04-16T10:11:22.412Z,1010.15
2018-04-16T10:12:22.347Z,1010.12
2018-04-16T10:13:22.360Z,1010.10
2018-04-16T10:14:22.294Z,1010.15
2018-04-16T10:15:22.274Z,1010.10
2018-04-16T10:16:22.249Z,1010.09
2018-04-16T10:17:22.234Z,1010.10
2018-04-16T10:18:22.248Z,1010.09
2018-04-16T10:19:22.188Z,1010.12
2018-04-16T10:20:22.162Z,1010.12
2018-04-16T10:21:22.142Z,1010.10
2018-04-16T10:22:22.151Z,1010.12
2018-04-16T10:23:22.138Z,1010.13
2018-04-16T10:24:22.099Z,1010.15
2018-04-16T10:25:22.054Z,1010.19
2018-04-16T10:26:22.034Z,1010.23
2018-04-16T10:27:22.009Z,1010.16
2018-04-16T10:28:22.060Z,1010.16
2018-04-16T10:29:21.964Z,1010.14
2018-04-16T10:30:21.935Z,1010.19
2018-04-16T10:31:21.915Z,1010.23
2018-04-16T10:32:21.909Z,1010.23
2018-04-16T10:33:21.957Z,1010.24
2018-04-16T10:34:21.852Z,1010.16
2018-04-16T10:35:21.825Z,1010.20
2018-04-16T10:36:21.809Z,1010.22
2018-04-16T10:37:21.782Z,1010.25
2018-04-16T10:38:21.795Z,1010.18
2018-04-16T10:39:21.738Z,1010.17
2018-04-16T10:40:21.711Z,1010.15
2018-04-16T10:41:21.733Z,1010.15
2018-04-16T10:42:21.673Z,1010.21
2018-04-16T10:43:21.656Z,1010.15
2018-04-16T10:44:21.626Z,1010.15
2018-04-16T10:45:21.710Z,1010.10
2018-04-16T10:46:21.619Z,1010.14
2018-04-16T10:47:21.556Z,1010.17
2018-04-16T10:48:21.544Z,1010.15
2018-04-16T10:49:21.514Z,1010.10
2018-04-16T10:50:21.527Z,1010.14
2018-04-16T10:51:21.479Z,1010.17
2018-04-16T10:52:21.450Z,1010.15
2018-04-16T10:53:21.424Z,1010.17
2018-04-16T10:54:21.409Z,1010.13
2018-04-16T10:55:21.418Z,1010.18
2018-04-16T10:56:21.361Z,1010.20
2018-04-16T10:57:21.337Z,1010.21
2018-04-16T10:58:21.315Z,1010.19
2018-04-16T10:59:21.306Z,1010.26
2018-04-16T11:00:21.305Z,1010.27
2018-04-16T11:01:21.251Z,1010.28
2018-04-16T11:02:21.229Z,1010.29
2018-04-16T11:03:21.243Z,1010.31
2018-04-16T11:04:21.186Z,1010.34
2018-04-16T11:05:21.165Z,1010.32
2018-04-16T11:06:21.147Z,1010.31
2018-04-16T11:07:21.122Z,1010.27
2018-04-16T11:08:21.129Z,1010.29
2018-04-16T11:09:21.083Z,1010.22
2018-04-16T11:10:21.060Z,1010.24
2018-04-16T11:11:21.062Z,1010.21
2018-04-16T11:12:21.053Z,1010.21
2018-04-16T11:13:20.992Z,1010.20
2018-04-16T11:14:20.970Z,1010.25
2018-04-16T11:15:20.956Z,1010.24
2018-04-16T11:16:20.962Z,1010.24
2018-04-16T11:17:20.938Z,1010.22
2018-04-16T11:18:20.885Z,1010.24
2018-04-16T11:19:20.863Z,1010.28
2018-04-16T11:20:20.843Z,1010.27
2018-04-16T11:21:20.857Z,1010.31
2018-04-16T11:22:20.796Z,1010.29
2018-04-16T11:23:20.813Z,1010.30
2018-04-16T11:24:20.755Z,1010.27
2018-04-16T11:25:20.732Z,1010.28
2018-04-16T11:26:20.708Z,1010.30
2018-04-16T11:27:20.727Z,1010.29
2018-04-16T11:28:20.678Z,1010.28
2018-04-16T11:29:20.675Z,1010.32
2018-04-16T11:30:20.626Z,1010.33
2018-04-16T11:31:20.641Z,1010.35
2018-04-16T11:32:20.632Z,1010.37
2018-04-16T11:33:20.639Z,1010.41
2018-04-16T11:34:20.532Z,1010.37
2018-04-16T11:35:20.514Z,1010.39
2018-04-16T11:36:20.489Z,1010.38
2018-04-16T11:37:20.473Z,1010.35
2018-04-16T11:38:20.480Z,1010.39
2018-04-16T11:39:20.457Z,1010.44
2018-04-16T11:40:20.432Z,1010.37
2018-04-16T11:41:20.379Z,1010.40
2018-04-16T11:42:20.394Z,1010.42
2018-04-16T11:43:20.336Z,1010.40
2018-04-16T11:44:20.312Z,1010.42
2018-04-16T11:45:20.293Z,1010.42
2018-04-16T11:46:20.265Z,1010.41
2018-04-16T11:47:20.283Z,1010.39
2018-04-16T11:48:20.235Z,1010.44
2018-04-16T11:49:20.203Z,1010.45
2018-04-16T11:50:20.174Z,1010.41
2018-04-16T11:51:20.155Z,1010.43
2018-04-16T11:52:20.168Z,1010.49
2018-04-16T11:53:20.108Z,1010.46
2018-04-16T11:54:20.130Z,1010.45
2018-04-16T11:55:20.064Z,1010.42
2018-04-16T11:56:20.048Z,1010.38
2018-04-16T11:57:20.052Z,1010.44
2018-04-16T11:58:19.999Z,1010.45
2018-04-16T11:59:20.006Z,1010.46
2018-04-16T12:00:19.950Z,1010.42
2018-04-16T12:01:19.924Z,1010.43
2018-04-16T12:02:19.898Z,1010.45
2018-04-16T12:03:19.917Z,1010.43
2018-04-16T12:04:19.879Z,1010.45
2018-04-16T12:05:19.830Z,1010.44